KMTC/MTC METAR and TAF weather

Enter ICAO airport designator
Station Type Date Time Source
KMTC METAR 2021/04/12 02:37 UTC NOAA

KMTC 120237Z 13007KT 10SM -RA SCT049 BKN060 OVC110 10/10 A2952 RMK AO2A SLP001


Station Type Date Time Source
KMTC Decoded METAR 2021/04/12 02:37 UTC NOAA

Selfridge Air National Guard Base, MI, United States (KMTC) 42-37N 082-50W
Apr 11, 2021 - 10:37 PM EDT / 2021.04.12 0237 UTC
Wind: from the SE (130 degrees) at 8 MPH (7 KT):0
Visibility: 10 mile(s):0
Sky conditions: overcast
Weather: light rain
Temperature: 50 F (10 C)
Dew Point: 50 F (10 C)
Relative Humidity: 100%
Pressure (altimeter): 29.52 in. Hg (999 hPa)
ob: KMTC 120237Z 13007KT 10SM -RA SCT049 BKN060 OVC110 10/10 A2952 RMK AO2A SLP001
cycle: 2

Station Type Date Time Source
KMTC TAF 2021/04/11 20:21 UTC NOAA

TAF
AMD KMTC 112011Z 1120/1223 18009KT 9999 BKN030 QNH2940INS
BECMG 1122/1123 15009KT 9999 BKN020 QNH2943INS
BECMG 1202/1203 VRB06KT 8000 BR OVC010 QNH2950INS
BECMG 1216/1217 VRB06KT 8000 -RA BKN015 QNH2962INS TX16/1120Z TN09/1211Z

Example: see airport list